ENDU

Bardufoss Airport

Målselv, Norway
METAR ENDU 220620Z AUTO 27006KT 9999 OVC029/// 02/00 Q1011 RMK WIND 1100FT 29007KT WIND 2200FT 32010KT
Observed Flight Rules
Apr-22 @ 06:20 UTC (32 minutes ago) Marginal Visual Flight Rules
Wind Visibility Clouds
270° at 6 knots 10,000+ meters
  • Overcast at 2,900' AGL
Temperatures Readings
Current 2°C / 36°F
Dewpoint 0°C / 32°F
Humidity 87%
Altimeter 29.85" Hg
Pressure 1011 hPa
Elevation 79
METAR ENDU 220620Z AUTO 27006KT 9999 OVC029/// 02/00 Q1011 RMK WIND 1100FT 29007KT WIND 2200FT 32010KT
Observed Flight Rules
Apr-22 @ 06:20 UTC
(32 minutes ago)
MVFR
Wind Visibility
270° at 6 knots 10,000+ meters
Clouds
  • Overcast at 2,900' AGL
Temperature Dewpoint
2°C / 36°F 0°C / 32°F
Humidity Altimeter Pressure
87% 29.85" Hg 1011 hPa